sensor_id;sensor_type;location;lat;lon;timestamp;P1;durP1;ratioP1;P2;durP2;ratioP2
18929;SDS011;43305;52.186;5.598;2022-12-18T00:02:19;91.60;;;29.67;;
18929;SDS011;43305;52.186;5.598;2022-12-18T00:04:46;95.95;;;28.48;;
18929;SDS011;43305;52.186;5.598;2022-12-18T00:07:13;104.75;;;30.88;;
18929;SDS011;43305;52.186;5.598;2022-12-18T00:09:40;101.40;;;30.42;;
18929;SDS011;43305;52.186;5.598;2022-12-18T00:12:07;101.55;;;28.95;;
18929;SDS011;43305;52.186;5.598;2022-12-18T00:14:34;97.60;;;28.23;;
18929;SDS011;43305;52.186;5.598;2022-12-18T00:17:01;110.45;;;29.38;;
18929;SDS011;43305;52.186;5.598;2022-12-18T00:19:30;105.35;;;30.85;;
18929;SDS011;43305;52.186;5.598;2022-12-18T00:21:56;99.32;;;29.13;;
18929;SDS011;43305;52.186;5.598;2022-12-18T00:24:24;101.53;;;30.63;;
18929;SDS011;43305;52.186;5.598;2022-12-18T00:26:51;101.28;;;29.50;;
18929;SDS011;43305;52.186;5.598;2022-12-18T00:29:18;99.93;;;30.25;;
18929;SDS011;43305;52.186;5.598;2022-12-18T00:31:45;103.97;;;30.35;;
18929;SDS011;43305;52.186;5.598;2022-12-18T00:34:12;99.10;;;28.77;;
18929;SDS011;43305;52.186;5.598;2022-12-18T00:36:41;108.63;;;28.92;;
18929;SDS011;43305;52.186;5.598;2022-12-18T00:39:09;102.85;;;29.77;;
18929;SDS011;43305;52.186;5.598;2022-12-18T00:41:37;97.47;;;28.45;;
18929;SDS011;43305;52.186;5.598;2022-12-18T00:44:18;105.93;;;29.10;;
18929;SDS011;43305;52.186;5.598;2022-12-18T00:46:46;96.38;;;28.63;;
18929;SDS011;43305;52.186;5.598;2022-12-18T00:49:14;99.45;;;30.13;;
18929;SDS011;43305;52.186;5.598;2022-12-18T00:51:43;116.45;;;32.78;;
18929;SDS011;43305;52.186;5.598;2022-12-18T00:54:10;111.15;;;31.40;;
18929;SDS011;43305;52.186;5.598;2022-12-18T00:56:37;113.05;;;30.80;;
18929;SDS011;43305;52.186;5.598;2022-12-18T00:59:04;107.70;;;30.90;;
18929;SDS011;43305;52.186;5.598;2022-12-18T01:01:31;103.07;;;29.67;;
18929;SDS011;43305;52.186;5.598;2022-12-18T01:03:59;93.28;;;29.25;;
18929;SDS011;43305;52.186;5.598;2022-12-18T01:06:26;101.95;;;30.73;;
18929;SDS011;43305;52.186;5.598;2022-12-18T01:08:54;98.97;;;29.40;;
18929;SDS011;43305;52.186;5.598;2022-12-18T01:11:21;104.30;;;29.65;;
18929;SDS011;43305;52.186;5.598;2022-12-18T01:13:49;111.03;;;30.35;;
18929;SDS011;43305;52.186;5.598;2022-12-18T01:16:16;110.53;;;31.30;;
18929;SDS011;43305;52.186;5.598;2022-12-18T01:18:43;109.70;;;31.25;;
18929;SDS011;43305;52.186;5.598;2022-12-18T01:21:11;101.68;;;29.92;;
18929;SDS011;43305;52.186;5.598;2022-12-18T01:23:39;101.63;;;30.88;;
18929;SDS011;43305;52.186;5.598;2022-12-18T01:26:09;104.20;;;30.77;;
18929;SDS011;43305;52.186;5.598;2022-12-18T01:28:37;103.05;;;31.02;;
18929;SDS011;43305;52.186;5.598;2022-12-18T01:31:12;124.20;;;34.13;;
18929;SDS011;43305;52.186;5.598;2022-12-18T01:33:40;103.03;;;31.88;;
18929;SDS011;43305;52.186;5.598;2022-12-18T01:36:07;127.18;;;36.33;;
18929;SDS011;43305;52.186;5.598;2022-12-18T01:38:39;106.30;;;32.22;;
18929;SDS011;43305;52.186;5.598;2022-12-18T01:41:09;105.90;;;32.47;;
18929;SDS011;43305;52.186;5.598;2022-12-18T01:43:40;117.30;;;34.58;;
18929;SDS011;43305;52.186;5.598;2022-12-18T01:46:09;104.30;;;32.72;;
18929;SDS011;43305;52.186;5.598;2022-12-18T01:48:37;104.70;;;32.35;;
18929;SDS011;43305;52.186;5.598;2022-12-18T01:51:06;106.45;;;31.48;;
18929;SDS011;43305;52.186;5.598;2022-12-18T01:53:35;98.07;;;29.60;;
18929;SDS011;43305;52.186;5.598;2022-12-18T01:56:03;89.45;;;29.58;;
18929;SDS011;43305;52.186;5.598;2022-12-18T01:58:32;88.75;;;29.42;;
18929;SDS011;43305;52.186;5.598;2022-12-18T02:01:06;90.25;;;29.40;;
18929;SDS011;43305;52.186;5.598;2022-12-18T02:03:33;91.60;;;29.42;;
18929;SDS011;43305;52.186;5.598;2022-12-18T02:06:01;92.65;;;28.63;;
18929;SDS011;43305;52.186;5.598;2022-12-18T02:08:36;91.63;;;28.08;;
18929;SDS011;43305;52.186;5.598;2022-12-18T02:11:10;90.80;;;30.02;;
18929;SDS011;43305;52.186;5.598;2022-12-18T02:13:44;82.95;;;25.60;;
18929;SDS011;43305;52.186;5.598;2022-12-18T02:16:19;82.35;;;27.88;;
18929;SDS011;43305;52.186;5.598;2022-12-18T02:18:51;80.05;;;27.58;;
18929;SDS011;43305;52.186;5.598;2022-12-18T02:21:25;83.10;;;28.05;;
18929;SDS011;43305;52.186;5.598;2022-12-18T02:24:02;79.68;;;26.88;;
18929;SDS011;43305;52.186;5.598;2022-12-18T02:26:43;78.35;;;26.65;;
18929;SDS011;43305;52.186;5.598;2022-12-18T02:31:49;70.57;;;24.75;;
18929;SDS011;43305;52.186;5.598;2022-12-18T02:34:22;70.80;;;25.50;;
18929;SDS011;43305;52.186;5.598;2022-12-18T02:36:53;80.38;;;26.30;;
18929;SDS011;43305;52.186;5.598;2022-12-18T02:39:22;77.32;;;25.60;;
18929;SDS011;43305;52.186;5.598;2022-12-18T02:41:54;68.93;;;24.75;;
18929;SDS011;43305;52.186;5.598;2022-12-18T02:44:22;74.55;;;25.50;;
18929;SDS011;43305;52.186;5.598;2022-12-18T02:46:50;77.95;;;25.20;;
18929;SDS011;43305;52.186;5.598;2022-12-18T02:49:22;71.47;;;23.95;;
18929;SDS011;43305;52.186;5.598;2022-12-18T02:51:55;76.38;;;25.50;;
18929;SDS011;43305;52.186;5.598;2022-12-18T02:54:32;71.93;;;24.45;;
18929;SDS011;43305;52.186;5.598;2022-12-18T02:57:12;69.30;;;25.15;;
18929;SDS011;43305;52.186;5.598;2022-12-18T02:59:47;64.05;;;22.92;;
18929;SDS011;43305;52.186;5.598;2022-12-18T03:02:23;70.05;;;23.75;;
18929;SDS011;43305;52.186;5.598;2022-12-18T03:04:55;70.70;;;24.20;;
18929;SDS011;43305;52.186;5.598;2022-12-18T03:07:33;63.90;;;23.13;;
18929;SDS011;43305;52.186;5.598;2022-12-18T03:10:04;61.47;;;22.55;;
18929;SDS011;43305;52.186;5.598;2022-12-18T03:12:40;73.18;;;24.45;;
18929;SDS011;43305;52.186;5.598;2022-12-18T03:15:13;55.20;;;21.63;;
18929;SDS011;43305;52.186;5.598;2022-12-18T03:17:44;59.92;;;22.15;;
18929;SDS011;43305;52.186;5.598;2022-12-18T03:20:15;67.63;;;22.20;;
18929;SDS011;43305;52.186;5.598;2022-12-18T03:22:46;60.78;;;22.55;;
18929;SDS011;43305;52.186;5.598;2022-12-18T03:25:18;55.03;;;21.73;;
18929;SDS011;43305;52.186;5.598;2022-12-18T03:27:49;58.05;;;20.77;;
18929;SDS011;43305;52.186;5.598;2022-12-18T03:30:19;60.05;;;21.60;;
18929;SDS011;43305;52.186;5.598;2022-12-18T03:32:47;59.33;;;21.48;;
18929;SDS011;43305;52.186;5.598;2022-12-18T03:35:20;53.75;;;20.85;;
18929;SDS011;43305;52.186;5.598;2022-12-18T03:37:51;58.90;;;22.10;;
18929;SDS011;43305;52.186;5.598;2022-12-18T03:40:39;56.38;;;20.33;;
18929;SDS011;43305;52.186;5.598;2022-12-18T03:43:16;61.15;;;22.92;;
18929;SDS011;43305;52.186;5.598;2022-12-18T03:45:52;55.97;;;20.90;;
18929;SDS011;43305;52.186;5.598;2022-12-18T03:48:26;62.40;;;21.95;;
18929;SDS011;43305;52.186;5.598;2022-12-18T03:50:56;55.40;;;20.90;;
18929;SDS011;43305;52.186;5.598;2022-12-18T03:53:26;54.63;;;20.73;;
18929;SDS011;43305;52.186;5.598;2022-12-18T03:58:45;53.92;;;20.42;;
18929;SDS011;43305;52.186;5.598;2022-12-18T04:01:14;54.33;;;20.13;;
18929;SDS011;43305;52.186;5.598;2022-12-18T04:03:44;51.63;;;20.38;;
18929;SDS011;43305;52.186;5.598;2022-12-18T04:06:14;50.47;;;19.27;;
18929;SDS011;43305;52.186;5.598;2022-12-18T04:08:42;55.30;;;20.38;;
18929;SDS011;43305;52.186;5.598;2022-12-18T04:11:12;47.45;;;19.05;;
18929;SDS011;43305;52.186;5.598;2022-12-18T04:13:39;49.20;;;19.20;;
18929;SDS011;43305;52.186;5.598;2022-12-18T04:16:10;51.10;;;20.23;;
18929;SDS011;43305;52.186;5.598;2022-12-18T04:18:45;53.47;;;19.77;;
18929;SDS011;43305;52.186;5.598;2022-12-18T04:21:17;55.55;;;19.95;;
18929;SDS011;43305;52.186;5.598;2022-12-18T04:23:49;53.08;;;19.42;;
18929;SDS011;43305;52.186;5.598;2022-12-18T04:26:18;53.78;;;19.25;;
18929;SDS011;43305;52.186;5.598;2022-12-18T04:28:46;49.92;;;20.20;;
18929;SDS011;43305;52.186;5.598;2022-12-18T04:31:34;57.38;;;20.15;;
18929;SDS011;43305;52.186;5.598;2022-12-18T04:34:03;49.63;;;18.15;;
18929;SDS011;43305;52.186;5.598;2022-12-18T04:36:46;52.80;;;18.58;;
18929;SDS011;43305;52.186;5.598;2022-12-18T04:39:19;53.63;;;18.40;;
18929;SDS011;43305;52.186;5.598;2022-12-18T04:41:49;48.50;;;18.05;;
18929;SDS011;43305;52.186;5.598;2022-12-18T04:44:18;42.42;;;18.02;;
18929;SDS011;43305;52.186;5.598;2022-12-18T04:46:51;47.17;;;18.10;;
18929;SDS011;43305;52.186;5.598;2022-12-18T04:49:29;45.58;;;17.65;;
18929;SDS011;43305;52.186;5.598;2022-12-18T04:52:01;45.83;;;17.95;;
18929;SDS011;43305;52.186;5.598;2022-12-18T04:54:34;42.33;;;17.17;;
18929;SDS011;43305;52.186;5.598;2022-12-18T04:57:02;40.45;;;17.10;;
18929;SDS011;43305;52.186;5.598;2022-12-18T04:59:33;41.95;;;17.42;;
18929;SDS011;43305;52.186;5.598;2022-12-18T05:02:03;46.22;;;17.42;;
18929;SDS011;43305;52.186;5.598;2022-12-18T05:04:33;39.30;;;16.42;;
18929;SDS011;43305;52.186;5.598;2022-12-18T05:07:09;39.33;;;16.13;;
18929;SDS011;43305;52.186;5.598;2022-12-18T05:09:39;41.22;;;16.02;;
18929;SDS011;43305;52.186;5.598;2022-12-18T05:12:13;40.45;;;15.38;;
18929;SDS011;43305;52.186;5.598;2022-12-18T05:14:41;42.65;;;16.60;;
18929;SDS011;43305;52.186;5.598;2022-12-18T05:17:15;41.50;;;16.10;;
18929;SDS011;43305;52.186;5.598;2022-12-18T05:19:47;37.60;;;16.08;;
18929;SDS011;43305;52.186;5.598;2022-12-18T05:22:21;39.13;;;16.13;;
18929;SDS011;43305;52.186;5.598;2022-12-18T05:24:58;39.63;;;15.07;;
18929;SDS011;43305;52.186;5.598;2022-12-18T05:27:27;39.30;;;15.65;;
18929;SDS011;43305;52.186;5.598;2022-12-18T05:29:57;37.00;;;14.93;;
18929;SDS011;43305;52.186;5.598;2022-12-18T05:32:44;35.05;;;14.35;;
18929;SDS011;43305;52.186;5.598;2022-12-18T05:35:12;37.50;;;15.45;;
18929;SDS011;43305;52.186;5.598;2022-12-18T05:37:42;35.15;;;13.60;;
18929;SDS011;43305;52.186;5.598;2022-12-18T05:40:15;32.83;;;14.50;;
18929;SDS011;43305;52.186;5.598;2022-12-18T05:42:45;33.70;;;14.45;;
18929;SDS011;43305;52.186;5.598;2022-12-18T05:45:15;33.65;;;14.07;;
18929;SDS011;43305;52.186;5.598;2022-12-18T05:48:00;32.85;;;13.95;;
18929;SDS011;43305;52.186;5.598;2022-12-18T05:50:39;35.17;;;14.13;;
18929;SDS011;43305;52.186;5.598;2022-12-18T05:53:13;32.63;;;13.93;;
18929;SDS011;43305;52.186;5.598;2022-12-18T05:55:42;38.22;;;14.15;;
18929;SDS011;43305;52.186;5.598;2022-12-18T05:58:15;36.20;;;14.27;;
18929;SDS011;43305;52.186;5.598;2022-12-18T06:00:48;31.88;;;13.90;;
18929;SDS011;43305;52.186;5.598;2022-12-18T06:06:14;34.80;;;15.57;;
18929;SDS011;43305;52.186;5.598;2022-12-18T06:08:49;32.00;;;13.38;;
18929;SDS011;43305;52.186;5.598;2022-12-18T06:11:25;34.38;;;14.18;;
18929;SDS011;43305;52.186;5.598;2022-12-18T06:13:56;32.67;;;13.60;;
18929;SDS011;43305;52.186;5.598;2022-12-18T06:16:25;37.30;;;13.95;;
18929;SDS011;43305;52.186;5.598;2022-12-18T06:18:59;30.77;;;13.63;;
18929;SDS011;43305;52.186;5.598;2022-12-18T06:21:38;31.25;;;13.00;;
18929;SDS011;43305;52.186;5.598;2022-12-18T06:24:16;28.75;;;13.23;;
18929;SDS011;43305;52.186;5.598;2022-12-18T06:26:56;32.50;;;13.40;;
18929;SDS011;43305;52.186;5.598;2022-12-18T06:29:23;38.78;;;14.65;;
18929;SDS011;43305;52.186;5.598;2022-12-18T06:31:54;35.08;;;14.65;;
18929;SDS011;43305;52.186;5.598;2022-12-18T06:34:27;34.25;;;13.85;;
18929;SDS011;43305;52.186;5.598;2022-12-18T06:36:59;34.60;;;14.55;;
18929;SDS011;43305;52.186;5.598;2022-12-18T06:39:32;32.65;;;13.32;;
18929;SDS011;43305;52.186;5.598;2022-12-18T06:42:05;28.27;;;13.70;;
18929;SDS011;43305;52.186;5.598;2022-12-18T06:44:42;32.20;;;14.02;;
18929;SDS011;43305;52.186;5.598;2022-12-18T06:47:28;31.15;;;13.45;;
18929;SDS011;43305;52.186;5.598;2022-12-18T06:49:58;31.80;;;13.52;;
18929;SDS011;43305;52.186;5.598;2022-12-18T06:52:34;30.75;;;13.35;;
18929;SDS011;43305;52.186;5.598;2022-12-18T06:55:02;29.60;;;13.10;;
18929;SDS011;43305;52.186;5.598;2022-12-18T06:57:38;27.45;;;12.48;;
18929;SDS011;43305;52.186;5.598;2022-12-18T07:00:14;28.80;;;13.02;;
18929;SDS011;43305;52.186;5.598;2022-12-18T07:02:48;31.70;;;13.88;;
18929;SDS011;43305;52.186;5.598;2022-12-18T07:05:25;33.47;;;13.85;;
18929;SDS011;43305;52.186;5.598;2022-12-18T07:08:04;33.30;;;13.60;;
18929;SDS011;43305;52.186;5.598;2022-12-18T07:10:43;25.27;;;12.35;;
18929;SDS011;43305;52.186;5.598;2022-12-18T07:13:27;34.13;;;14.70;;
18929;SDS011;43305;52.186;5.598;2022-12-18T07:16:05;28.02;;;13.38;;
18929;SDS011;43305;52.186;5.598;2022-12-18T07:18:42;33.47;;;13.68;;
18929;SDS011;43305;52.186;5.598;2022-12-18T07:21:31;31.65;;;13.95;;
18929;SDS011;43305;52.186;5.598;2022-12-18T07:24:08;35.63;;;14.02;;
18929;SDS011;43305;52.186;5.598;2022-12-18T07:26:45;31.45;;;13.98;;
18929;SDS011;43305;52.186;5.598;2022-12-18T07:29:16;26.65;;;13.20;;
18929;SDS011;43305;52.186;5.598;2022-12-18T07:31:48;29.10;;;13.95;;
18929;SDS011;43305;52.186;5.598;2022-12-18T07:34:16;34.80;;;13.57;;
18929;SDS011;43305;52.186;5.598;2022-12-18T07:36:49;30.63;;;13.85;;
18929;SDS011;43305;52.186;5.598;2022-12-18T07:39:17;30.40;;;13.85;;
18929;SDS011;43305;52.186;5.598;2022-12-18T07:41:47;30.20;;;13.63;;
18929;SDS011;43305;52.186;5.598;2022-12-18T07:44:30;33.85;;;14.32;;
18929;SDS011;43305;52.186;5.598;2022-12-18T07:46:59;29.15;;;13.60;;
18929;SDS011;43305;52.186;5.598;2022-12-18T07:49:27;29.95;;;13.38;;
18929;SDS011;43305;52.186;5.598;2022-12-18T07:52:02;29.77;;;13.15;;
18929;SDS011;43305;52.186;5.598;2022-12-18T07:54:33;29.35;;;13.52;;
18929;SDS011;43305;52.186;5.598;2022-12-18T07:57:05;29.90;;;13.68;;
18929;SDS011;43305;52.186;5.598;2022-12-18T07:59:42;29.92;;;13.38;;
18929;SDS011;43305;52.186;5.598;2022-12-18T08:02:12;28.27;;;13.10;;
18929;SDS011;43305;52.186;5.598;2022-12-18T08:04:48;24.85;;;13.02;;
18929;SDS011;43305;52.186;5.598;2022-12-18T08:07:17;28.80;;;13.05;;
18929;SDS011;43305;52.186;5.598;2022-12-18T08:09:44;32.33;;;15.43;;
18929;SDS011;43305;52.186;5.598;2022-12-18T08:12:14;31.80;;;13.70;;
18929;SDS011;43305;52.186;5.598;2022-12-18T08:14:45;27.75;;;14.30;;
18929;SDS011;43305;52.186;5.598;2022-12-18T08:17:17;34.95;;;15.02;;
18929;SDS011;43305;52.186;5.598;2022-12-18T08:19:54;30.60;;;13.25;;
18929;SDS011;43305;52.186;5.598;2022-12-18T08:22:23;27.90;;;13.02;;
18929;SDS011;43305;52.186;5.598;2022-12-18T08:24:58;26.55;;;11.80;;
18929;SDS011;43305;52.186;5.598;2022-12-18T08:27:40;27.17;;;12.38;;
18929;SDS011;43305;52.186;5.598;2022-12-18T08:30:14;27.25;;;11.90;;
18929;SDS011;43305;52.186;5.598;2022-12-18T08:32:47;25.17;;;11.13;;
18929;SDS011;43305;52.186;5.598;2022-12-18T08:35:23;22.10;;;11.07;;
18929;SDS011;43305;52.186;5.598;2022-12-18T08:37:53;23.40;;;11.30;;
18929;SDS011;43305;52.186;5.598;2022-12-18T08:40:22;24.73;;;11.23;;
18929;SDS011;43305;52.186;5.598;2022-12-18T08:42:49;22.80;;;10.90;;
18929;SDS011;43305;52.186;5.598;2022-12-18T08:45:44;25.45;;;12.07;;
18929;SDS011;43305;52.186;5.598;2022-12-18T08:48:13;24.23;;;11.23;;
18929;SDS011;43305;52.186;5.598;2022-12-18T08:50:53;24.23;;;11.00;;
18929;SDS011;43305;52.186;5.598;2022-12-18T08:53:50;32.08;;;13.25;;
18929;SDS011;43305;52.186;5.598;2022-12-18T08:56:23;26.60;;;11.23;;
18929;SDS011;43305;52.186;5.598;2022-12-18T08:59:00;23.35;;;10.88;;
18929;SDS011;43305;52.186;5.598;2022-12-18T09:01:30;21.73;;;10.57;;
18929;SDS011;43305;52.186;5.598;2022-12-18T09:03:57;23.23;;;10.70;;
18929;SDS011;43305;52.186;5.598;2022-12-18T09:06:24;22.23;;;10.35;;
18929;SDS011;43305;52.186;5.598;2022-12-18T09:09:04;22.45;;;10.50;;
18929;SDS011;43305;52.186;5.598;2022-12-18T09:11:44;22.13;;;10.63;;
18929;SDS011;43305;52.186;5.598;2022-12-18T09:14:25;19.63;;;9.55;;
18929;SDS011;43305;52.186;5.598;2022-12-18T09:16:57;22.20;;;10.27;;
18929;SDS011;43305;52.186;5.598;2022-12-18T09:19:44;19.50;;;9.10;;
18929;SDS011;43305;52.186;5.598;2022-12-18T09:22:25;21.63;;;9.45;;
18929;SDS011;43305;52.186;5.598;2022-12-18T09:25:15;22.58;;;9.30;;
18929;SDS011;43305;52.186;5.598;2022-12-18T09:27:49;22.13;;;9.85;;
18929;SDS011;43305;52.186;5.598;2022-12-18T09:30:19;21.83;;;9.82;;
18929;SDS011;43305;52.186;5.598;2022-12-18T09:32:54;21.75;;;9.93;;
18929;SDS011;43305;52.186;5.598;2022-12-18T09:35:32;19.48;;;9.05;;
18929;SDS011;43305;52.186;5.598;2022-12-18T09:38:17;18.92;;;8.63;;
18929;SDS011;43305;52.186;5.598;2022-12-18T09:40:50;20.05;;;8.90;;
18929;SDS011;43305;52.186;5.598;2022-12-18T09:43:31;16.13;;;8.32;;
18929;SDS011;43305;52.186;5.598;2022-12-18T09:46:11;21.05;;;8.32;;
18929;SDS011;43305;52.186;5.598;2022-12-18T09:48:46;18.85;;;9.05;;
18929;SDS011;43305;52.186;5.598;2022-12-18T09:51:21;18.85;;;9.25;;
18929;SDS011;43305;52.186;5.598;2022-12-18T09:53:58;22.10;;;9.32;;
18929;SDS011;43305;52.186;5.598;2022-12-18T09:56:37;17.13;;;8.25;;
18929;SDS011;43305;52.186;5.598;2022-12-18T09:59:15;20.90;;;8.60;;
18929;SDS011;43305;52.186;5.598;2022-12-18T10:01:50;20.20;;;9.25;;
18929;SDS011;43305;52.186;5.598;2022-12-18T10:04:40;19.00;;;8.48;;
18929;SDS011;43305;52.186;5.598;2022-12-18T10:07:14;20.20;;;8.25;;
18929;SDS011;43305;52.186;5.598;2022-12-18T10:09:52;18.38;;;8.55;;
18929;SDS011;43305;52.186;5.598;2022-12-18T10:12:38;19.17;;;8.88;;
18929;SDS011;43305;52.186;5.598;2022-12-18T10:15:18;19.70;;;8.10;;
18929;SDS011;43305;52.186;5.598;2022-12-18T10:17:55;20.15;;;8.02;;
18929;SDS011;43305;52.186;5.598;2022-12-18T10:20:32;19.95;;;8.35;;
18929;SDS011;43305;52.186;5.598;2022-12-18T10:23:08;16.65;;;7.60;;
18929;SDS011;43305;52.186;5.598;2022-12-18T10:25:48;18.92;;;8.80;;
18929;SDS011;43305;52.186;5.598;2022-12-18T10:28:32;18.92;;;8.63;;
18929;SDS011;43305;52.186;5.598;2022-12-18T10:31:12;18.75;;;9.25;;
18929;SDS011;43305;52.186;5.598;2022-12-18T10:33:54;18.40;;;8.88;;
18929;SDS011;43305;52.186;5.598;2022-12-18T10:36:23;17.73;;;8.77;;
18929;SDS011;43305;52.186;5.598;2022-12-18T10:38:51;16.25;;;7.45;;
18929;SDS011;43305;52.186;5.598;2022-12-18T10:41:30;17.60;;;8.45;;
18929;SDS011;43305;52.186;5.598;2022-12-18T10:46:46;16.70;;;7.82;;
18929;SDS011;43305;52.186;5.598;2022-12-18T10:49:26;16.40;;;8.13;;
18929;SDS011;43305;52.186;5.598;2022-12-18T10:52:11;16.42;;;8.32;;
18929;SDS011;43305;52.186;5.598;2022-12-18T10:54:45;17.77;;;8.20;;
18929;SDS011;43305;52.186;5.598;2022-12-18T10:57:15;15.25;;;7.55;;
18929;SDS011;43305;52.186;5.598;2022-12-18T11:02:54;17.33;;;8.43;;
18929;SDS011;43305;52.186;5.598;2022-12-18T11:05:26;17.25;;;7.95;;
18929;SDS011;43305;52.186;5.598;2022-12-18T11:08:00;16.55;;;8.35;;
18929;SDS011;43305;52.186;5.598;2022-12-18T11:10:30;19.25;;;8.23;;
18929;SDS011;43305;52.186;5.598;2022-12-18T11:18:41;17.80;;;8.27;;
18929;SDS011;43305;52.186;5.598;2022-12-18T11:21:11;16.50;;;7.88;;
18929;SDS011;43305;52.186;5.598;2022-12-18T11:23:44;16.25;;;8.10;;
18929;SDS011;43305;52.186;5.598;2022-12-18T11:26:15;18.80;;;8.45;;
18929;SDS011;43305;52.186;5.598;2022-12-18T11:28:43;16.77;;;7.65;;
18929;SDS011;43305;52.186;5.598;2022-12-18T11:44:40;18.15;;;7.82;;
18929;SDS011;43305;52.186;5.598;2022-12-18T11:47:18;18.08;;;7.70;;
18929;SDS011;43305;52.186;5.598;2022-12-18T11:49:51;18.42;;;8.43;;
18929;SDS011;43305;52.186;5.598;2022-12-18T11:52:25;18.15;;;8.30;;
18929;SDS011;43305;52.186;5.598;2022-12-18T11:55:07;18.88;;;8.77;;
18929;SDS011;43305;52.186;5.598;2022-12-18T11:57:43;17.90;;;7.47;;
18929;SDS011;43305;52.186;5.598;2022-12-18T12:00:22;18.88;;;8.85;;
18929;SDS011;43305;52.186;5.598;2022-12-18T12:02:59;19.60;;;8.73;;
18929;SDS011;43305;52.186;5.598;2022-12-18T12:05:38;17.00;;;8.25;;
18929;SDS011;43305;52.186;5.598;2022-12-18T12:08:15;18.48;;;7.90;;
18929;SDS011;43305;52.186;5.598;2022-12-18T12:10:56;19.10;;;9.02;;
18929;SDS011;43305;52.186;5.598;2022-12-18T12:13:35;18.30;;;8.50;;
18929;SDS011;43305;52.186;5.598;2022-12-18T12:19:19;18.33;;;8.75;;
18929;SDS011;43305;52.186;5.598;2022-12-18T12:22:02;22.45;;;9.82;;
18929;SDS011;43305;52.186;5.598;2022-12-18T12:24:39;18.05;;;8.77;;
18929;SDS011;43305;52.186;5.598;2022-12-18T12:27:25;18.77;;;9.75;;
18929;SDS011;43305;52.186;5.598;2022-12-18T12:30:08;17.15;;;8.70;;
18929;SDS011;43305;52.186;5.598;2022-12-18T12:32:49;20.55;;;9.25;;
18929;SDS011;43305;52.186;5.598;2022-12-18T12:35:31;18.73;;;9.30;;
18929;SDS011;43305;52.186;5.598;2022-12-18T12:38:09;16.05;;;8.38;;
18929;SDS011;43305;52.186;5.598;2022-12-18T12:40:41;20.23;;;8.80;;
18929;SDS011;43305;52.186;5.598;2022-12-18T12:43:21;18.95;;;8.95;;
18929;SDS011;43305;52.186;5.598;2022-12-18T12:45:53;23.00;;;9.57;;
18929;SDS011;43305;52.186;5.598;2022-12-18T12:48:34;18.92;;;9.05;;
18929;SDS011;43305;52.186;5.598;2022-12-18T12:51:11;20.80;;;8.60;;
18929;SDS011;43305;52.186;5.598;2022-12-18T12:53:41;20.55;;;9.60;;
18929;SDS011;43305;52.186;5.598;2022-12-18T12:56:10;18.00;;;8.90;;
18929;SDS011;43305;52.186;5.598;2022-12-18T12:58:43;17.63;;;8.43;;
18929;SDS011;43305;52.186;5.598;2022-12-18T13:01:17;17.40;;;8.38;;
18929;SDS011;43305;52.186;5.598;2022-12-18T13:04:00;19.00;;;9.10;;
18929;SDS011;43305;52.186;5.598;2022-12-18T13:06:46;16.58;;;8.15;;
18929;SDS011;43305;52.186;5.598;2022-12-18T13:09:21;20.77;;;9.60;;
18929;SDS011;43305;52.186;5.598;2022-12-18T13:11:49;20.35;;;10.13;;
18929;SDS011;43305;52.186;5.598;2022-12-18T13:14:36;21.90;;;9.80;;
18929;SDS011;43305;52.186;5.598;2022-12-18T13:17:14;18.95;;;9.43;;
18929;SDS011;43305;52.186;5.598;2022-12-18T13:20:03;19.70;;;9.68;;
18929;SDS011;43305;52.186;5.598;2022-12-18T13:22:38;19.45;;;8.70;;
18929;SDS011;43305;52.186;5.598;2022-12-18T13:28:08;20.45;;;9.40;;
18929;SDS011;43305;52.186;5.598;2022-12-18T13:30:42;21.05;;;9.57;;
18929;SDS011;43305;52.186;5.598;2022-12-18T13:36:13;17.10;;;8.52;;
18929;SDS011;43305;52.186;5.598;2022-12-18T13:38:47;18.13;;;9.05;;
18929;SDS011;43305;52.186;5.598;2022-12-18T13:41:37;19.00;;;9.30;;
18929;SDS011;43305;52.186;5.598;2022-12-18T13:44:11;21.75;;;10.05;;
18929;SDS011;43305;52.186;5.598;2022-12-18T13:46:48;21.85;;;10.20;;
18929;SDS011;43305;52.186;5.598;2022-12-18T13:49:20;19.77;;;9.23;;
18929;SDS011;43305;52.186;5.598;2022-12-18T13:52:16;20.65;;;9.60;;
18929;SDS011;43305;52.186;5.598;2022-12-18T13:54:47;21.00;;;8.80;;
18929;SDS011;43305;52.186;5.598;2022-12-18T13:57:25;18.08;;;9.38;;
18929;SDS011;43305;52.186;5.598;2022-12-18T14:00:16;18.15;;;9.52;;
18929;SDS011;43305;52.186;5.598;2022-12-18T14:02:58;19.05;;;8.90;;
18929;SDS011;43305;52.186;5.598;2022-12-18T14:05:28;17.25;;;8.80;;
18929;SDS011;43305;52.186;5.598;2022-12-18T14:07:59;20.17;;;9.00;;
18929;SDS011;43305;52.186;5.598;2022-12-18T14:10:31;19.55;;;9.63;;
18929;SDS011;43305;52.186;5.598;2022-12-18T14:13:02;23.00;;;10.18;;
18929;SDS011;43305;52.186;5.598;2022-12-18T14:15:35;17.13;;;9.13;;
18929;SDS011;43305;52.186;5.598;2022-12-18T14:18:13;21.27;;;8.77;;
18929;SDS011;43305;52.186;5.598;2022-12-18T14:20:46;18.33;;;9.02;;
18929;SDS011;43305;52.186;5.598;2022-12-18T14:26:02;20.77;;;10.15;;
18929;SDS011;43305;52.186;5.598;2022-12-18T14:28:50;22.23;;;9.77;;
18929;SDS011;43305;52.186;5.598;2022-12-18T14:31:25;18.50;;;9.93;;
18929;SDS011;43305;52.186;5.598;2022-12-18T14:33:56;19.30;;;9.52;;
18929;SDS011;43305;52.186;5.598;2022-12-18T14:36:25;19.42;;;9.60;;
18929;SDS011;43305;52.186;5.598;2022-12-18T14:38:59;18.60;;;9.10;;
18929;SDS011;43305;52.186;5.598;2022-12-18T14:41:26;21.10;;;9.35;;
18929;SDS011;43305;52.186;5.598;2022-12-18T14:43:54;19.52;;;9.02;;
18929;SDS011;43305;52.186;5.598;2022-12-18T14:46:34;21.77;;;9.60;;
18929;SDS011;43305;52.186;5.598;2022-12-18T14:49:03;19.13;;;9.73;;
18929;SDS011;43305;52.186;5.598;2022-12-18T14:51:32;20.58;;;9.55;;
18929;SDS011;43305;52.186;5.598;2022-12-18T14:54:04;20.08;;;9.57;;
18929;SDS011;43305;52.186;5.598;2022-12-18T14:56:42;22.80;;;10.95;;
18929;SDS011;43305;52.186;5.598;2022-12-18T14:59:12;20.20;;;9.93;;
18929;SDS011;43305;52.186;5.598;2022-12-18T15:01:44;20.77;;;9.63;;
18929;SDS011;43305;52.186;5.598;2022-12-18T15:04:24;22.58;;;9.63;;
18929;SDS011;43305;52.186;5.598;2022-12-18T15:09:39;22.58;;;9.40;;
18929;SDS011;43305;52.186;5.598;2022-12-18T15:12:24;26.15;;;10.50;;
18929;SDS011;43305;52.186;5.598;2022-12-18T15:14:59;21.15;;;10.13;;
18929;SDS011;43305;52.186;5.598;2022-12-18T15:17:31;21.05;;;10.13;;
18929;SDS011;43305;52.186;5.598;2022-12-18T15:20:03;21.85;;;9.50;;
18929;SDS011;43305;52.186;5.598;2022-12-18T15:22:41;19.15;;;9.40;;
18929;SDS011;43305;52.186;5.598;2022-12-18T15:25:22;25.20;;;11.73;;
18929;SDS011;43305;52.186;5.598;2022-12-18T15:28:02;21.35;;;9.90;;
18929;SDS011;43305;52.186;5.598;2022-12-18T15:30:44;20.75;;;10.10;;
18929;SDS011;43305;52.186;5.598;2022-12-18T15:33:30;22.65;;;10.10;;
18929;SDS011;43305;52.186;5.598;2022-12-18T15:36:00;23.48;;;10.30;;
18929;SDS011;43305;52.186;5.598;2022-12-18T15:38:29;23.52;;;10.30;;
18929;SDS011;43305;52.186;5.598;2022-12-18T15:41:01;21.95;;;10.25;;
18929;SDS011;43305;52.186;5.598;2022-12-18T15:43:32;20.83;;;9.88;;
18929;SDS011;43305;52.186;5.598;2022-12-18T15:46:04;24.95;;;11.40;;
18929;SDS011;43305;52.186;5.598;2022-12-18T15:48:38;22.80;;;11.13;;
18929;SDS011;43305;52.186;5.598;2022-12-18T15:51:13;23.30;;;10.68;;